sensor_id;sensor_type;location;lat;lon;timestamp;pressure;altitude;pressure_sealevel;temperature;humidity
21779;BME280;11050;52.222;20.916;2022-12-13T00:01:52;99139.59;;;0.10;100.00
21779;BME280;11050;52.222;20.916;2022-12-13T00:04:20;99133.81;;;0.06;100.00
21779;BME280;11050;52.222;20.916;2022-12-13T00:06:47;99128.22;;;0.08;100.00
21779;BME280;11050;52.222;20.916;2022-12-13T00:09:17;99137.19;;;0.02;100.00
21779;BME280;11050;52.222;20.916;2022-12-13T00:11:44;99138.88;;;-0.04;100.00
21779;BME280;11050;52.222;20.916;2022-12-13T00:14:11;99140.13;;;-0.13;100.00
21779;BME280;11050;52.222;20.916;2022-12-13T00:16:39;99134.16;;;-0.22;100.00
21779;BME280;11050;52.222;20.916;2022-12-13T00:19:05;99135.56;;;-0.13;100.00
21779;BME280;11050;52.222;20.916;2022-12-13T00:21:32;99146.53;;;-0.08;100.00
21779;BME280;11050;52.222;20.916;2022-12-13T00:24:00;99150.69;;;-0.05;100.00
21779;BME280;11050;52.222;20.916;2022-12-13T00:26:30;99153.59;;;0.00;100.00
21779;BME280;11050;52.222;20.916;2022-12-13T00:29:03;99150.47;;;-0.04;100.00
21779;BME280;11050;52.222;20.916;2022-12-13T00:31:29;99140.34;;;-0.08;100.00
21779;BME280;11050;52.222;20.916;2022-12-13T00:33:59;99152.75;;;-0.01;100.00
21779;BME280;11050;52.222;20.916;2022-12-13T00:36:25;99147.97;;;0.02;100.00
21779;BME280;11050;52.222;20.916;2022-12-13T00:38:52;99160.88;;;-0.01;100.00
21779;BME280;11050;52.222;20.916;2022-12-13T00:41:33;99168.56;;;-0.04;100.00
21779;BME280;11050;52.222;20.916;2022-12-13T00:44:01;99154.06;;;-0.10;100.00
21779;BME280;11050;52.222;20.916;2022-12-13T00:46:28;99169.38;;;0.03;100.00
21779;BME280;11050;52.222;20.916;2022-12-13T00:48:58;99167.91;;;0.00;100.00
21779;BME280;11050;52.222;20.916;2022-12-13T00:51:26;99154.84;;;-0.03;100.00
21779;BME280;11050;52.222;20.916;2022-12-13T00:53:52;99170.22;;;-0.03;100.00
21779;BME280;11050;52.222;20.916;2022-12-13T00:56:22;99167.09;;;0.00;100.00
21779;BME280;11050;52.222;20.916;2022-12-13T00:58:51;99166.25;;;-0.01;100.00
21779;BME280;11050;52.222;20.916;2022-12-13T01:01:23;99174.31;;;0.06;100.00
21779;BME280;11050;52.222;20.916;2022-12-13T01:03:51;99183.03;;;0.15;100.00
21779;BME280;11050;52.222;20.916;2022-12-13T01:06:38;99173.94;;;0.03;100.00
21779;BME280;11050;52.222;20.916;2022-12-13T01:09:08;99173.25;;;0.14;100.00
21779;BME280;11050;52.222;20.916;2022-12-13T01:11:35;99159.00;;;-0.07;100.00
21779;BME280;11050;52.222;20.916;2022-12-13T01:14:01;99181.00;;;-0.03;100.00
21779;BME280;11050;52.222;20.916;2022-12-13T01:16:27;99179.16;;;-0.03;100.00
21779;BME280;11050;52.222;20.916;2022-12-13T01:18:52;99186.81;;;0.00;100.00
21779;BME280;11050;52.222;20.916;2022-12-13T01:21:19;99187.63;;;0.08;100.00
21779;BME280;11050;52.222;20.916;2022-12-13T01:23:46;99185.34;;;0.05;100.00
21779;BME280;11050;52.222;20.916;2022-12-13T01:26:16;99187.81;;;0.06;100.00
21779;BME280;11050;52.222;20.916;2022-12-13T01:28:42;99185.16;;;-0.01;100.00
21779;BME280;11050;52.222;20.916;2022-12-13T01:31:12;99194.28;;;-0.02;100.00
21779;BME280;11050;52.222;20.916;2022-12-13T01:33:39;99188.31;;;-0.17;100.00
21779;BME280;11050;52.222;20.916;2022-12-13T01:36:12;99199.94;;;-0.10;100.00
21779;BME280;11050;52.222;20.916;2022-12-13T01:38:38;99190.19;;;-0.11;100.00
21779;BME280;11050;52.222;20.916;2022-12-13T01:41:05;99194.94;;;-0.06;100.00
21779;BME280;11050;52.222;20.916;2022-12-13T01:46:07;99192.44;;;-0.08;100.00
21779;BME280;11050;52.222;20.916;2022-12-13T01:48:41;99198.09;;;-0.16;100.00
21779;BME280;11050;52.222;20.916;2022-12-13T01:51:14;99196.19;;;-0.09;100.00
21779;BME280;11050;52.222;20.916;2022-12-13T01:53:44;99186.25;;;-0.15;100.00
21779;BME280;11050;52.222;20.916;2022-12-13T01:56:21;99207.84;;;-0.08;100.00
21779;BME280;11050;52.222;20.916;2022-12-13T01:58:49;99200.97;;;-0.11;100.00
21779;BME280;11050;52.222;20.916;2022-12-13T02:01:17;99214.06;;;-0.21;100.00
21779;BME280;11050;52.222;20.916;2022-12-13T02:03:44;99199.13;;;-0.17;100.00
21779;BME280;11050;52.222;20.916;2022-12-13T02:06:44;99205.72;;;0.00;100.00
21779;BME280;11050;52.222;20.916;2022-12-13T02:09:11;99181.69;;;-0.14;100.00
21779;BME280;11050;52.222;20.916;2022-12-13T02:11:42;99216.31;;;-0.05;100.00
21779;BME280;11050;52.222;20.916;2022-12-13T02:14:09;99212.16;;;-0.01;100.00
21779;BME280;11050;52.222;20.916;2022-12-13T02:17:30;99200.53;;;-0.01;100.00
21779;BME280;11050;52.222;20.916;2022-12-13T02:31:47;99206.47;;;0.21;100.00
21779;BME280;11050;52.222;20.916;2022-12-13T02:34:31;99213.34;;;0.17;100.00
21779;BME280;11050;52.222;20.916;2022-12-13T02:37:11;99208.97;;;0.16;100.00
21779;BME280;11050;52.222;20.916;2022-12-13T02:40:20;99205.66;;;0.20;100.00
21779;BME280;11050;52.222;20.916;2022-12-13T02:43:05;99199.00;;;0.16;100.00
21779;BME280;11050;52.222;20.916;2022-12-13T02:45:56;99206.66;;;0.19;100.00
21779;BME280;11050;52.222;20.916;2022-12-13T02:48:33;99216.22;;;0.28;100.00
21779;BME280;11050;52.222;20.916;2022-12-13T02:51:02;99212.06;;;0.26;100.00
21779;BME280;11050;52.222;20.916;2022-12-13T02:53:31;99214.31;;;0.29;100.00
21779;BME280;11050;52.222;20.916;2022-12-13T02:55:57;99212.06;;;0.26;100.00
21779;BME280;11050;52.222;20.916;2022-12-13T02:58:32;99219.72;;;0.35;100.00
21779;BME280;11050;52.222;20.916;2022-12-13T03:07:43;99233.78;;;0.44;100.00
21779;BME280;11050;52.222;20.916;2022-12-13T03:10:19;99219.47;;;0.43;100.00
21779;BME280;11050;52.222;20.916;2022-12-13T03:12:54;99238.78;;;0.47;100.00
21779;BME280;11050;52.222;20.916;2022-12-13T03:18:19;99226.28;;;0.46;100.00
21779;BME280;11050;52.222;20.916;2022-12-13T03:21:05;99224.44;;;0.46;100.00
21779;BME280;11050;52.222;20.916;2022-12-13T03:23:33;99234.41;;;0.46;100.00
21779;BME280;11050;52.222;20.916;2022-12-13T03:26:06;99225.88;;;0.49;100.00
21779;BME280;11050;52.222;20.916;2022-12-13T03:28:33;99219.88;;;0.47;100.00
21779;BME280;11050;52.222;20.916;2022-12-13T03:30:59;99220.88;;;0.52;100.00
21779;BME280;11050;52.222;20.916;2022-12-13T03:33:25;99228.13;;;0.58;100.00
21779;BME280;11050;52.222;20.916;2022-12-13T03:35:51;99231.28;;;0.49;100.00
21779;BME280;11050;52.222;20.916;2022-12-13T03:38:17;99235.25;;;0.40;100.00
21779;BME280;11050;52.222;20.916;2022-12-13T03:40:44;99215.75;;;0.38;100.00
21779;BME280;11050;52.222;20.916;2022-12-13T03:43:10;99227.38;;;0.38;100.00
21779;BME280;11050;52.222;20.916;2022-12-13T03:45:36;99212.22;;;0.31;100.00
21779;BME280;11050;52.222;20.916;2022-12-13T03:48:02;99233.78;;;0.44;100.00
21779;BME280;11050;52.222;20.916;2022-12-13T03:50:28;99227.75;;;0.42;100.00
21779;BME280;11050;52.222;20.916;2022-12-13T03:52:59;99222.66;;;0.27;100.00
21779;BME280;11050;52.222;20.916;2022-12-13T03:55:26;99233.84;;;0.37;100.00
21779;BME280;11050;52.222;20.916;2022-12-13T03:57:52;99237.38;;;0.38;100.00
21779;BME280;11050;52.222;20.916;2022-12-13T04:00:19;99231.47;;;0.47;100.00
21779;BME280;11050;52.222;20.916;2022-12-13T04:02:44;99238.19;;;0.38;100.00
21779;BME280;11050;52.222;20.916;2022-12-13T04:05:10;99236.72;;;0.42;100.00
21779;BME280;11050;52.222;20.916;2022-12-13T04:07:36;99219.31;;;0.32;100.00
21779;BME280;11050;52.222;20.916;2022-12-13T04:10:04;99235.47;;;0.45;100.00
21779;BME280;11050;52.222;20.916;2022-12-13T04:12:29;99237.94;;;0.46;100.00
21779;BME280;11050;52.222;20.916;2022-12-13T04:15:14;99254.59;;;0.43;100.00
21779;BME280;11050;52.222;20.916;2022-12-13T04:17:40;99233.63;;;0.39;100.00
21779;BME280;11050;52.222;20.916;2022-12-13T04:20:06;99242.50;;;0.46;100.00
21779;BME280;11050;52.222;20.916;2022-12-13T04:22:32;99239.19;;;0.44;100.00
21779;BME280;11050;52.222;20.916;2022-12-13T04:24:58;99243.09;;;0.54;100.00
21779;BME280;11050;52.222;20.916;2022-12-13T04:27:24;99240.63;;;0.53;100.00
21779;BME280;11050;52.222;20.916;2022-12-13T04:29:50;99261.81;;;0.56;100.00
21779;BME280;11050;52.222;20.916;2022-12-13T04:32:15;99255.16;;;0.52;100.00
21779;BME280;11050;52.222;20.916;2022-12-13T04:34:41;99259.09;;;0.56;100.00
21779;BME280;11050;52.222;20.916;2022-12-13T04:37:08;99247.97;;;0.33;100.00
21779;BME280;11050;52.222;20.916;2022-12-13T04:39:34;99248.13;;;0.44;100.00
21779;BME280;11050;52.222;20.916;2022-12-13T04:42:00;99259.72;;;0.51;100.00
21779;BME280;11050;52.222;20.916;2022-12-13T04:44:25;99265.59;;;0.42;100.00
21779;BME280;11050;52.222;20.916;2022-12-13T04:46:51;99252.69;;;0.44;100.00
21779;BME280;11050;52.222;20.916;2022-12-13T04:49:17;99264.94;;;0.53;100.00
21779;BME280;11050;52.222;20.916;2022-12-13T04:51:43;99255.25;;;0.32;100.00
21779;BME280;11050;52.222;20.916;2022-12-13T04:54:09;99269.53;;;0.46;100.00
21779;BME280;11050;52.222;20.916;2022-12-13T04:56:36;99255.66;;;0.36;100.00
21779;BME280;11050;52.222;20.916;2022-12-13T04:59:02;99264.19;;;0.33;100.00
21779;BME280;11050;52.222;20.916;2022-12-13T05:01:28;99268.56;;;0.34;100.00
21779;BME280;11050;52.222;20.916;2022-12-13T05:03:53;99263.78;;;0.29;100.00
21779;BME280;11050;52.222;20.916;2022-12-13T05:06:19;99261.72;;;0.25;100.00
21779;BME280;11050;52.222;20.916;2022-12-13T05:08:45;99273.75;;;0.29;100.00
21779;BME280;11050;52.222;20.916;2022-12-13T05:11:11;99255.94;;;0.08;100.00
21779;BME280;11050;52.222;20.916;2022-12-13T05:13:37;99289.41;;;0.00;100.00
21779;BME280;11050;52.222;20.916;2022-12-13T05:16:06;99272.81;;;-0.03;100.00
21779;BME280;11050;52.222;20.916;2022-12-13T05:18:35;99265.34;;;-0.08;100.00
21779;BME280;11050;52.222;20.916;2022-12-13T05:21:04;99269.09;;;-0.09;100.00
21779;BME280;11050;52.222;20.916;2022-12-13T05:23:31;99273.44;;;0.06;100.00
21779;BME280;11050;52.222;20.916;2022-12-13T05:26:05;99270.50;;;0.00;100.00
21779;BME280;11050;52.222;20.916;2022-12-13T05:28:33;99288.34;;;0.08;100.00
21779;BME280;11050;52.222;20.916;2022-12-13T05:31:08;99299.59;;;0.05;100.00
21779;BME280;11050;52.222;20.916;2022-12-13T05:33:34;99301.84;;;0.15;100.00
21779;BME280;11050;52.222;20.916;2022-12-13T05:36:00;99288.34;;;0.15;100.00
21779;BME280;11050;52.222;20.916;2022-12-13T05:38:27;99299.16;;;0.08;100.00
21779;BME280;11050;52.222;20.916;2022-12-13T05:40:52;99287.97;;;0.05;100.00
21779;BME280;11050;52.222;20.916;2022-12-13T05:43:18;99296.06;;;0.05;100.00
21779;BME280;11050;52.222;20.916;2022-12-13T05:45:44;99303.13;;;0.06;100.00
21779;BME280;11050;52.222;20.916;2022-12-13T05:48:11;99312.44;;;0.10;100.00
21779;BME280;11050;52.222;20.916;2022-12-13T05:50:36;99308.94;;;0.09;100.00
21779;BME280;11050;52.222;20.916;2022-12-13T05:53:06;99303.56;;;-0.04;100.00
21779;BME280;11050;52.222;20.916;2022-12-13T05:55:32;99319.97;;;0.01;100.00
21779;BME280;11050;52.222;20.916;2022-12-13T05:57:58;99310.41;;;-0.08;100.00
21779;BME280;11050;52.222;20.916;2022-12-13T06:00:25;99329.53;;;-0.10;100.00
21779;BME280;11050;52.222;20.916;2022-12-13T06:02:51;99311.88;;;-0.19;100.00
21779;BME280;11050;52.222;20.916;2022-12-13T06:05:17;99313.34;;;-0.16;100.00
21779;BME280;11050;52.222;20.916;2022-12-13T06:07:43;99327.25;;;-0.13;100.00
21779;BME280;11050;52.222;20.916;2022-12-13T06:10:09;99337.41;;;-0.15;100.00
21779;BME280;11050;52.222;20.916;2022-12-13T06:12:36;99343.88;;;-0.16;100.00
21779;BME280;11050;52.222;20.916;2022-12-13T06:15:04;99342.19;;;-0.17;100.00
21779;BME280;11050;52.222;20.916;2022-12-13T06:17:32;99350.28;;;-0.30;100.00
21779;BME280;11050;52.222;20.916;2022-12-13T06:19:59;99342.22;;;-0.23;100.00
21779;BME280;11050;52.222;20.916;2022-12-13T06:22:25;99346.78;;;-0.24;100.00
21779;BME280;11050;52.222;20.916;2022-12-13T06:24:52;99343.47;;;-0.32;100.00
21779;BME280;11050;52.222;20.916;2022-12-13T06:27:18;99356.31;;;-0.28;100.00
21779;BME280;11050;52.222;20.916;2022-12-13T06:29:44;99364.84;;;-0.31;100.00
21779;BME280;11050;52.222;20.916;2022-12-13T06:32:10;99351.97;;;-0.35;100.00
21779;BME280;11050;52.222;20.916;2022-12-13T06:34:36;99374.19;;;-0.27;100.00
21779;BME280;11050;52.222;20.916;2022-12-13T06:37:07;99374.59;;;-0.23;100.00
21779;BME280;11050;52.222;20.916;2022-12-13T06:39:34;99364.84;;;-0.31;100.00
21779;BME280;11050;52.222;20.916;2022-12-13T06:42:02;99370.66;;;-0.40;100.00
21779;BME280;11050;52.222;20.916;2022-12-13T06:44:30;99375.84;;;-0.39;100.00
21779;BME280;11050;52.222;20.916;2022-12-13T06:46:57;99377.28;;;-0.36;100.00
21779;BME280;11050;52.222;20.916;2022-12-13T06:49:24;99376.66;;;-0.32;100.00
21779;BME280;11050;52.222;20.916;2022-12-13T06:51:50;99378.94;;;-0.35;100.00
21779;BME280;11050;52.222;20.916;2022-12-13T06:54:15;99375.84;;;-0.39;100.00
21779;BME280;11050;52.222;20.916;2022-12-13T06:56:41;99385.78;;;-0.46;100.00
21779;BME280;11050;52.222;20.916;2022-12-13T06:59:07;99393.69;;;-0.44;100.00
21779;BME280;11050;52.222;20.916;2022-12-13T07:01:34;99407.97;;;-0.50;100.00
21779;BME280;11050;52.222;20.916;2022-12-13T07:03:59;99400.31;;;-0.47;100.00
21779;BME280;11050;52.222;20.916;2022-12-13T07:06:25;99418.19;;;-0.46;100.00
21779;BME280;11050;52.222;20.916;2022-12-13T07:08:55;99404.06;;;-0.41;100.00
21779;BME280;11050;52.222;20.916;2022-12-13T07:11:25;99417.97;;;-0.38;100.00
21779;BME280;11050;52.222;20.916;2022-12-13T07:13:52;99418.59;;;-0.42;100.00
21779;BME280;11050;52.222;20.916;2022-12-13T07:16:19;99418.19;;;-0.46;100.00
21779;BME280;11050;52.222;20.916;2022-12-13T07:18:45;99425.66;;;-0.48;100.00
21779;BME280;11050;52.222;20.916;2022-12-13T07:21:13;99420.66;;;-0.44;100.00
21779;BME280;11050;52.222;20.916;2022-12-13T07:23:40;99428.09;;;-0.53;100.00
21779;BME280;11050;52.222;20.916;2022-12-13T07:26:07;99456.34;;;-0.49;100.00
21779;BME280;11050;52.222;20.916;2022-12-13T07:28:35;99417.72;;;-0.56;100.00
21779;BME280;11050;52.222;20.916;2022-12-13T07:31:04;99437.03;;;-0.52;100.00
21779;BME280;11050;52.222;20.916;2022-12-13T07:33:30;99430.63;;;-0.51;100.00
21779;BME280;11050;52.222;20.916;2022-12-13T07:36:14;99436.41;;;-0.61;100.00
21779;BME280;11050;52.222;20.916;2022-12-13T07:38:41;99444.28;;;-0.53;100.00
21779;BME280;11050;52.222;20.916;2022-12-13T07:41:07;99448.47;;;-0.44;100.00
21779;BME280;11050;52.222;20.916;2022-12-13T07:43:34;99460.53;;;-0.40;100.00
21779;BME280;11050;52.222;20.916;2022-12-13T07:46:03;99447.66;;;-0.44;100.00
21779;BME280;11050;52.222;20.916;2022-12-13T07:48:30;99458.84;;;-0.54;100.00
21779;BME280;11050;52.222;20.916;2022-12-13T07:51:06;99456.97;;;-0.53;100.00
21779;BME280;11050;52.222;20.916;2022-12-13T07:53:34;99471.50;;;-0.41;99.96
21779;BME280;11050;52.222;20.916;2022-12-13T07:56:02;99466.53;;;-0.44;100.00
21779;BME280;11050;52.222;20.916;2022-12-13T07:58:29;99471.31;;;-0.46;100.00
21779;BME280;11050;52.222;20.916;2022-12-13T08:01:00;99454.41;;;-0.68;100.00
21779;BME280;11050;52.222;20.916;2022-12-13T08:03:27;99464.84;;;-0.52;100.00
21779;BME280;11050;52.222;20.916;2022-12-13T08:06:11;99472.09;;;-0.52;100.00
21779;BME280;11050;52.222;20.916;2022-12-13T08:08:37;99482.28;;;-0.54;100.00
21779;BME280;11050;52.222;20.916;2022-12-13T08:11:13;99477.28;;;-0.51;100.00
21779;BME280;11050;52.222;20.916;2022-12-13T08:13:40;99480.59;;;-0.62;100.00
21779;BME280;11050;52.222;20.916;2022-12-13T08:16:09;99499.28;;;-0.54;100.00
21779;BME280;11050;52.222;20.916;2022-12-13T08:18:35;99488.97;;;-0.44;100.00
21779;BME280;11050;52.222;20.916;2022-12-13T08:21:04;99481.03;;;-0.52;100.00
21779;BME280;11050;52.222;20.916;2022-12-13T08:23:32;99488.09;;;-0.51;100.00
21779;BME280;11050;52.222;20.916;2022-12-13T08:25:59;99485.00;;;-0.48;100.00
21779;BME280;11050;52.222;20.916;2022-12-13T08:28:26;99485.84;;;-0.41;100.00
21779;BME280;11050;52.222;20.916;2022-12-13T08:30:53;99497.72;;;-0.29;100.00
21779;BME280;11050;52.222;20.916;2022-12-13T08:33:19;99494.34;;;-0.37;100.00
21779;BME280;11050;52.222;20.916;2022-12-13T08:35:46;99493.34;;;-0.36;100.00
21779;BME280;11050;52.222;20.916;2022-12-13T08:38:12;99486.91;;;-0.35;100.00
21779;BME280;11050;52.222;20.916;2022-12-13T08:40:38;99499.38;;;-0.28;100.00
21779;BME280;11050;52.222;20.916;2022-12-13T08:43:04;99504.38;;;-0.25;100.00
21779;BME280;11050;52.222;20.916;2022-12-13T08:45:30;99491.69;;;-0.31;100.00
21779;BME280;11050;52.222;20.916;2022-12-13T08:48:00;99510.78;;;-0.32;99.87
21779;BME280;11050;52.222;20.916;2022-12-13T08:50:28;99512.88;;;-0.28;99.93
21779;BME280;11050;52.222;20.916;2022-12-13T08:52:55;99507.03;;;-0.31;99.51
21779;BME280;11050;52.222;20.916;2022-12-13T08:55:21;99511.19;;;-0.35;100.00
21779;BME280;11050;52.222;20.916;2022-12-13T08:57:46;99506.41;;;-0.40;100.00
21779;BME280;11050;52.222;20.916;2022-12-13T09:00:18;99535.69;;;-0.37;100.00
21779;BME280;11050;52.222;20.916;2022-12-13T09:02:44;99499.53;;;-0.36;99.56
21779;BME280;11050;52.222;20.916;2022-12-13T09:05:11;99515.78;;;-0.29;98.99
21779;BME280;11050;52.222;20.916;2022-12-13T09:07:40;99529.47;;;-0.24;99.53
21779;BME280;11050;52.222;20.916;2022-12-13T09:10:09;99519.72;;;-0.19;98.17
21779;BME280;11050;52.222;20.916;2022-12-13T09:12:35;99524.75;;;-0.16;98.47
21779;BME280;11050;52.222;20.916;2022-12-13T09:15:00;99530.38;;;-0.04;95.72
21779;BME280;11050;52.222;20.916;2022-12-13T09:17:30;99532.63;;;-0.08;94.69
21779;BME280;11050;52.222;20.916;2022-12-13T09:19:57;99529.69;;;-0.26;95.64
21779;BME280;11050;52.222;20.916;2022-12-13T09:22:23;99551.75;;;-0.16;96.01
21779;BME280;11050;52.222;20.916;2022-12-13T09:24:48;99543.88;;;-0.04;94.58
21779;BME280;11050;52.222;20.916;2022-12-13T09:27:14;99534.91;;;-0.11;94.93
21779;BME280;11050;52.222;20.916;2022-12-13T09:29:40;99524.28;;;-0.32;94.65
21779;BME280;11050;52.222;20.916;2022-12-13T09:32:06;99522.00;;;-0.22;95.14
21779;BME280;11050;52.222;20.916;2022-12-13T09:34:31;99533.06;;;-0.17;95.15
21779;BME280;11050;52.222;20.916;2022-12-13T09:36:57;99531.97;;;-0.29;95.88
21779;BME280;11050;52.222;20.916;2022-12-13T09:39:23;99543.38;;;-0.34;96.09
21779;BME280;11050;52.222;20.916;2022-12-13T09:41:56;99538.81;;;-0.33;97.21
21779;BME280;11050;52.222;20.916;2022-12-13T09:44:32;99547.78;;;-0.20;96.96
21779;BME280;11050;52.222;20.916;2022-12-13T09:47:02;99538.25;;;-0.16;96.07
21779;BME280;11050;52.222;20.916;2022-12-13T09:49:42;99544.03;;;-0.19;95.60
21779;BME280;11050;52.222;20.916;2022-12-13T09:52:15;99533.25;;;-0.12;95.60
21779;BME280;11050;52.222;20.916;2022-12-13T09:54:44;99539.28;;;-0.04;94.34
21779;BME280;11050;52.222;20.916;2022-12-13T09:57:27;99534.50;;;-0.21;95.02
21779;BME280;11050;52.222;20.916;2022-12-13T09:59:54;99563.16;;;-0.14;94.70
21779;BME280;11050;52.222;20.916;2022-12-13T10:02:27;99546.75;;;-0.12;95.22
21779;BME280;11050;52.222;20.916;2022-12-13T10:05:11;99563.97;;;-0.20;96.20
21779;BME280;11050;52.222;20.916;2022-12-13T10:07:40;99550.88;;;-0.23;95.66
21779;BME280;11050;52.222;20.916;2022-12-13T10:10:09;99563.72;;;-0.31;97.18
21779;BME280;11050;52.222;20.916;2022-12-13T10:12:37;99546.09;;;-0.27;96.82
21779;BME280;11050;52.222;20.916;2022-12-13T10:15:04;99550.19;;;-0.38;97.79
21779;BME280;11050;52.222;20.916;2022-12-13T10:17:37;99545.69;;;-0.31;98.16
21779;BME280;11050;52.222;20.916;2022-12-13T10:20:11;99530.25;;;-0.43;98.69
21779;BME280;11050;52.222;20.916;2022-12-13T10:22:41;99551.41;;;-0.47;100.00
21779;BME280;11050;52.222;20.916;2022-12-13T10:25:07;99554.78;;;-0.32;100.00
21779;BME280;11050;52.222;20.916;2022-12-13T10:27:46;99559.38;;;-0.32;100.00
21779;BME280;11050;52.222;20.916;2022-12-13T10:30:17;99549.81;;;-0.28;100.00
21779;BME280;11050;52.222;20.916;2022-12-13T10:33:02;99549.81;;;-0.35;100.00
21779;BME280;11050;52.222;20.916;2022-12-13T10:35:38;99554.16;;;-0.34;100.00
21779;BME280;11050;52.222;20.916;2022-12-13T10:40:40;99545.25;;;-0.34;100.00
21779;BME280;11050;52.222;20.916;2022-12-13T10:51:10;99551.94;;;-0.17;100.00
21779;BME280;11050;52.222;20.916;2022-12-13T10:53:51;99555.03;;;-0.20;100.00
21779;BME280;11050;52.222;20.916;2022-12-13T10:56:21;99557.34;;;-0.17;100.00
21779;BME280;11050;52.222;20.916;2022-12-13T10:58:51;99546.13;;;-0.14;100.00
21779;BME280;11050;52.222;20.916;2022-12-13T11:01:33;99536.56;;;-0.23;100.00
21779;BME280;11050;52.222;20.916;2022-12-13T11:04:02;99540.31;;;-0.18;100.00
21779;BME280;11050;52.222;20.916;2022-12-13T11:06:44;99535.09;;;-0.26;100.00
21779;BME280;11050;52.222;20.916;2022-12-13T11:09:33;99527.66;;;-0.17;100.00
21779;BME280;11050;52.222;20.916;2022-12-13T11:12:03;99539.53;;;0.02;100.00
21779;BME280;11050;52.222;20.916;2022-12-13T11:14:54;99535.59;;;0.24;100.00
21779;BME280;11050;52.222;20.916;2022-12-13T11:17:26;99534.16;;;0.28;99.74
21779;BME280;11050;52.222;20.916;2022-12-13T11:20:14;99538.09;;;0.38;99.01
21779;BME280;11050;52.222;20.916;2022-12-13T11:22:43;99538.53;;;0.35;98.92
21779;BME280;11050;52.222;20.916;2022-12-13T11:25:22;99547.66;;;0.34;99.17
21779;BME280;11050;52.222;20.916;2022-12-13T11:39:49;99542.00;;;-0.04;100.00
21779;BME280;11050;52.222;20.916;2022-12-13T11:45:27;99545.47;;;-0.29;100.00
21779;BME280;11050;52.222;20.916;2022-12-13T11:50:46;99552.38;;;-0.14;100.00
21779;BME280;11050;52.222;20.916;2022-12-13T11:53:31;99551.53;;;-0.14;99.14
21779;BME280;11050;52.222;20.916;2022-12-13T11:56:20;99538.41;;;-0.24;99.00
21779;BME280;11050;52.222;20.916;2022-12-13T12:01:47;99556.06;;;-0.34;99.81
21779;BME280;11050;52.222;20.916;2022-12-13T12:04:27;99549.00;;;-0.22;100.00
21779;BME280;11050;52.222;20.916;2022-12-13T12:07:17;99545.16;;;0.13;97.59
21779;BME280;11050;52.222;20.916;2022-12-13T12:10:04;99544.03;;;1.25;94.32
21779;BME280;11050;52.222;20.916;2022-12-13T12:12:39;99556.22;;;2.29;87.68
21779;BME280;11050;52.222;20.916;2022-12-13T12:15:25;99568.09;;;3.09;79.22
21779;BME280;11050;52.222;20.916;2022-12-13T12:17:55;99572.19;;;3.36;77.30
21779;BME280;11050;52.222;20.916;2022-12-13T12:23:28;99560.47;;;3.71;70.90
21779;BME280;11050;52.222;20.916;2022-12-13T12:26:12;99571.22;;;3.84;68.62
21779;BME280;11050;52.222;20.916;2022-12-13T12:29:38;99571.50;;;3.76;67.82
21779;BME280;11050;52.222;20.916;2022-12-13T12:32:59;99578.13;;;3.62;68.82
21779;BME280;11050;52.222;20.916;2022-12-13T12:38:30;99579.69;;;4.06;66.24
21779;BME280;11050;52.222;20.916;2022-12-13T12:53:46;99585.91;;;5.82;57.93
21779;BME280;11050;52.222;20.916;2022-12-13T12:56:23;99586.53;;;5.84;55.13
21779;BME280;11050;52.222;20.916;2022-12-13T13:01:58;99597.34;;;4.98;58.78
21779;BME280;11050;52.222;20.916;2022-12-13T13:04:33;99597.69;;;4.90;57.91
21779;BME280;11050;52.222;20.916;2022-12-13T13:07:23;99586.94;;;5.06;57.45
21779;BME280;11050;52.222;20.916;2022-12-13T13:09:52;99610.56;;;4.94;57.85
21779;BME280;11050;52.222;20.916;2022-12-13T13:12:19;99602.06;;;3.90;60.64
21779;BME280;11050;52.222;20.916;2022-12-13T13:14:45;99609.53;;;2.42;66.12
21779;BME280;11050;52.222;20.916;2022-12-13T13:22:36;99592.81;;;0.73;78.95
21779;BME280;11050;52.222;20.916;2022-12-13T13:27:37;99611.47;;;0.35;81.71
21779;BME280;11050;52.222;20.916;2022-12-13T13:30:17;99608.78;;;0.35;84.00
21779;BME280;11050;52.222;20.916;2022-12-13T13:32:45;99611.94;;;0.98;82.54
21779;BME280;11050;52.222;20.916;2022-12-13T13:40:46;99618.97;;;2.64;71.78
21779;BME280;11050;52.222;20.916;2022-12-13T13:43:15;99634.19;;;2.65;70.27
21779;BME280;11050;52.222;20.916;2022-12-13T13:45:57;99636.94;;;2.89;69.08
21779;BME280;11050;52.222;20.916;2022-12-13T13:49:02;99620.59;;;2.96;67.96
21779;BME280;11050;52.222;20.916;2022-12-13T13:52:34;99633.59;;;3.12;66.48
21779;BME280;11050;52.222;20.916;2022-12-13T14:00:17;99648.75;;;0.79;74.62
21779;BME280;11050;52.222;20.916;2022-12-13T14:09:15;99649.53;;;-0.88;86.55
21779;BME280;11050;52.222;20.916;2022-12-13T14:12:03;99649.25;;;-1.00;87.73
21779;BME280;11050;52.222;20.916;2022-12-13T14:20:55;99649.41;;;-1.71;94.02
21779;BME280;11050;52.222;20.916;2022-12-13T14:26:26;99654.03;;;-1.86;96.52
21779;BME280;11050;52.222;20.916;2022-12-13T14:29:02;99658.50;;;-1.94;96.64
21779;BME280;11050;52.222;20.916;2022-12-13T14:31:37;99664.09;;;-1.95;97.60
21779;BME280;11050;52.222;20.916;2022-12-13T14:34:06;99660.09;;;-1.99;97.47
21779;BME280;11050;52.222;20.916;2022-12-13T14:36:35;99638.81;;;-2.15;98.43
21779;BME280;11050;52.222;20.916;2022-12-13T14:39:15;99649.56;;;-2.15;99.32
21779;BME280;11050;52.222;20.916;2022-12-13T14:41:50;99658.75;;;-2.10;98.98
21779;BME280;11050;52.222;20.916;2022-12-13T14:46:59;99663.56;;;-2.20;100.00
21779;BME280;11050;52.222;20.916;2022-12-13T14:49:29;99657.75;;;-2.23;100.00
21779;BME280;11050;52.222;20.916;2022-12-13T14:54:54;99653.56;;;-2.26;100.00
21779;BME280;11050;52.222;20.916;2022-12-13T14:57:26;99653.84;;;-2.35;100.00
21779;BME280;11050;52.222;20.916;2022-12-13T14:59:55;99664.50;;;-2.27;100.00
21779;BME280;11050;52.222;20.916;2022-12-13T15:02:30;99661.16;;;-2.29;100.00
21779;BME280;11050;52.222;20.916;2022-12-13T15:05:04;99661.72;;;-2.34;100.00